Time;durP1;ratioP1;P1;durP2;ratioP2;P2;SDS_P1;SDS_P2;PMS_P1;PMS_P2;Temp;Humidity;BMP_temperature;BMP_pressure;BME280_temperature;BME280_humidity;BME280_pressure;Samples;Min_cycle;Max_cycle;Signal;HPM_P1;HPM_P2
2022/01/02 00:00:46;;;;;;;7.13;3.28;;;;;;;12.17;100.00;101695.78;5222693;28;20273;-71
2022/01/02 00:03:20;;;;;;;8.00;3.80;;;;;;;12.24;100.00;101697.97;5222725;28;20510;-71
2022/01/02 00:05:54;;;;;;;6.68;3.40;;;;;;;12.21;100.00;101700.81;5221826;28;20487;-72
2022/01/02 00:08:25;;;;;;;6.70;3.40;;;;;;;12.26;100.00;101704.75;5221810;28;20756;-71
2022/01/02 00:10:58;;;;;;;6.80;3.95;;;;;;;12.26;100.00;101731.00;5224658;28;20062;-70
2022/01/02 00:13:34;;;;;;;5.25;3.05;;;;;;;12.27;100.00;101719.53;5222906;28;20033;-71
2022/01/02 00:16:07;;;;;;;8.23;3.58;;;;;;;12.32;100.00;101727.09;5220712;28;20018;-71
2022/01/02 00:18:47;;;;;;;;;;;;;;;12.70;100.00;101726.69;5222869;28;20049;-70
2022/01/02 00:21:20;;;;;;;5.45;2.92;;;;;;;12.34;100.00;101717.28;5223475;28;19916;-71
2022/01/02 00:24:02;;;;;;;7.50;3.53;;;;;;;12.35;100.00;101721.56;5223683;28;20021;-71
2022/01/02 00:26:43;;;;;;;6.40;3.20;;;;;;;12.35;100.00;101721.56;5222825;28;20163;-71
2022/01/02 00:29:14;;;;;;;5.10;3.38;;;;;;;12.32;100.00;101720.03;5204874;28;20235;-71
2022/01/02 00:31:47;;;;;;;6.55;3.50;;;;;;;12.37;100.00;101703.91;5220999;28;20045;-70
2022/01/02 00:34:19;;;;;;;8.55;3.20;;;;;;;12.40;100.00;101704.50;5224621;28;20021;-70
2022/01/02 00:36:50;;;;;;;5.13;3.03;;;;;;;12.32;100.00;101709.53;5223079;28;20572;-71
2022/01/02 00:39:22;;;;;;;7.45;3.63;;;;;;;12.37;100.00;101709.16;5206233;28;20069;-71
2022/01/02 00:41:56;;;;;;;7.53;3.40;;;;;;;12.32;100.00;101704.28;5221418;28;20494;-71
2022/01/02 00:44:57;;;;;;;5.97;3.33;;;;;;;12.48;100.00;101713.56;5222254;28;20050;-71
2022/01/02 00:47:43;;;;;;;7.55;3.50;;;;;;;12.24;100.00;101692.69;5221544;28;20490;-72
2022/01/02 00:50:29;;;;;;;6.50;3.50;;;;;;;12.35;100.00;101711.06;5218225;28;20084;-73
2022/01/02 00:53:02;;;;;;;8.38;3.22;;;;;;;12.22;100.00;101711.19;5220154;28;20021;-73
2022/01/02 00:55:34;;;;;;;8.80;3.53;;;;;;;12.16;100.00;101703.81;5224037;28;20028;-73
2022/01/02 00:58:12;;;;;;;11.20;3.85;;;;;;;12.17;100.00;101695.78;5224237;28;20033;-73
2022/01/02 01:00:47;;;;;;;9.68;3.67;;;;;;;12.10;100.00;101696.41;5204671;28;20029;-73
2022/01/02 01:03:31;;;;;;;8.68;3.80;;;;;;;12.16;100.00;101682.78;5222829;28;20052;-73
2022/01/02 01:06:04;;;;;;;9.65;3.83;;;;;;;12.01;100.00;101682.19;5226386;28;20059;-72
2022/01/02 01:08:36;;;;;;;10.38;4.65;;;;;;;12.02;100.00;101686.47;5221827;28;20026;-73
2022/01/02 01:11:11;;;;;;;9.10;3.70;;;;;;;12.00;100.00;101674.41;5222549;28;20117;-73
2022/01/02 01:13:42;;;;;;;8.35;3.55;;;;;;;11.95;100.00;101669.53;5224492;28;20033;-73
2022/01/02 01:16:16;;;;;;;6.57;3.65;;;;;;;11.94;100.00;101683.63;5222270;28;20331;-73
2022/01/02 01:18:48;;;;;;;7.55;3.92;;;;;;;11.88;100.00;101671.78;5222717;28;20121;-73
2022/01/02 01:21:20;;;;;;;9.02;3.85;;;;;;;11.87;100.00;101667.50;5220297;28;20029;-73
2022/01/02 01:23:51;;;;;;;7.40;3.55;;;;;;;11.89;100.00;101673.47;5225051;28;20033;-73
2022/01/02 01:26:22;;;;;;;8.10;4.00;;;;;;;11.87;100.00;101650.91;5222946;28;20040;-73
2022/01/02 01:28:54;;;;;;;7.85;4.50;;;;;;;11.87;100.00;101656.16;5221364;28;20123;-73
2022/01/02 01:31:25;;;;;;;9.32;4.07;;;;;;;11.82;100.00;101645.97;5221875;28;20037;-73
2022/01/02 01:33:56;;;;;;;8.82;4.07;;;;;;;11.85;100.00;101643.13;5221704;28;20391;-73
2022/01/02 01:36:27;;;;;;;9.68;3.92;;;;;;;11.84;100.00;101640.63;5222701;28;20408;-73
2022/01/02 01:38:59;;;;;;;7.97;4.03;;;;;;;11.82;100.00;101639.88;5221226;28;20075;-73
2022/01/02 01:41:34;;;;;;;6.97;3.80;;;;;;;11.81;100.00;101639.03;5224035;28;20030;-73
2022/01/02 01:46:45;;;;;;;11.45;4.18;;;;;;;11.74;100.00;101635.22;5221817;28;20483;-73
2022/01/02 01:49:19;;;;;;;8.13;4.43;;;;;;;11.77;100.00;101634.97;5221417;28;20030;-73
2022/01/02 01:51:50;;;;;;;7.22;4.00;;;;;;;11.70;100.00;101623.28;5203428;28;20382;-73
2022/01/02 01:54:22;;;;;;;9.13;3.60;;;;;;;11.70;100.00;101623.28;5220991;28;20045;-72
2022/01/02 01:56:53;;;;;;;9.45;4.35;;;;;;;11.76;100.00;101616.75;5221949;28;20478;-72
2022/01/02 01:59:25;;;;;;;8.70;4.22;;;;;;;11.74;100.00;101606.34;5220598;28;20272;-72
2022/01/02 02:01:56;;;;;;;6.78;3.83;;;;;;;11.73;100.00;101612.56;5222418;28;20380;-72
2022/01/02 02:04:28;;;;;;;7.85;4.15;;;;;;;11.74;100.00;101614.22;5222335;28;20027;-72
2022/01/02 02:07:00;;;;;;;8.40;3.47;;;;;;;11.73;100.00;101602.03;5218621;28;20125;-72
2022/01/02 02:09:45;;;;;;;8.48;4.07;;;;;;;11.66;100.00;101582.47;5224125;28;20383;-72
2022/01/02 02:12:17;;;;;;;6.30;3.22;;;;;;;11.76;100.00;101590.47;5220528;28;20378;-72
2022/01/02 02:14:48;;;;;;;8.50;4.07;;;;;;;11.75;100.00;101581.78;5222045;28;20029;-72
2022/01/02 02:17:20;;;;;;;8.75;3.97;;;;;;;11.76;100.00;101574.72;5221520;28;20075;-72
2022/01/02 02:19:58;;;;;;;6.30;3.85;;;;;;;11.84;100.00;101569.75;5202443;28;20050;-72
2022/01/02 02:22:30;;;;;;;9.88;4.18;;;;;;;11.80;100.00;101573.53;5220796;28;20068;-73
2022/01/02 02:25:01;;;;;;;8.85;4.10;;;;;;;11.81;100.00;101569.94;5221772;28;20109;-72
2022/01/02 02:27:32;;;;;;;11.20;4.35;;;;;;;11.84;100.00;101569.75;5221621;28;20056;-72
2022/01/02 02:30:05;;;;;;;10.07;3.83;;;;;;;11.83;100.00;101565.44;5220719;28;20494;-72
2022/01/02 02:32:36;;;;;;;10.82;4.32;;;;;;;11.86;100.00;101558.19;5220943;28;20075;-72
2022/01/02 02:35:08;;;;;;;9.60;3.50;;;;;;;11.85;100.00;101561.75;5222648;28;20022;-72
2022/01/02 02:37:44;;;;;;;9.15;3.60;;;;;;;11.91;100.00;101570.94;5204534;28;20022;-71
2022/01/02 02:40:18;;;;;;;8.35;4.05;;;;;;;11.86;100.00;101563.44;5223153;28;20025;-72
2022/01/02 02:42:57;;;;;;;7.80;3.55;;;;;;;11.84;100.00;101569.75;5220165;28;20033;-72
2022/01/02 02:51:20;;;;;;;8.52;4.10;;;;;;;11.83;100.00;101528.66;5222030;28;20457;-72
2022/01/02 02:53:52;;;;;;;10.05;4.45;;;;;;;11.82;100.00;101527.84;5221725;28;20025;-72
2022/01/02 02:56:26;;;;;;;9.85;4.25;;;;;;;11.85;100.00;101529.41;5222440;28;20140;-71
2022/01/02 02:58:57;;;;;;;11.82;5.18;;;;;;;11.84;100.00;101535.63;5200011;28;20038;-72
2022/01/02 03:01:29;;;;;;;10.88;4.47;;;;;;;11.85;100.00;101532.84;5219123;28;20084;-72
2022/01/02 03:04:00;;;;;;;11.07;4.45;;;;;;;11.86;100.00;101528.47;5221875;28;20117;-72
2022/01/02 03:06:31;;;;;;;10.40;4.40;;;;;;;11.87;100.00;101533.59;5218084;28;20070;-70
2022/01/02 03:09:08;;;;;;;13.15;4.50;;;;;;;11.86;100.00;101528.47;5220015;28;20014;-72
2022/01/02 03:11:41;;;;;;;11.13;5.13;;;;;;;11.88;100.00;101532.63;5221787;28;20036;-72
2022/01/02 03:14:13;;;;;;;8.18;4.57;;;;;;;11.88;100.00;101522.13;5220572;28;20018;-72
2022/01/02 03:16:44;;;;;;;9.55;4.35;;;;;;;11.90;100.00;101522.84;5221346;28;20099;-72
2022/01/02 03:19:15;;;;;;;10.63;5.00;;;;;;;11.89;100.00;101528.19;5221270;28;20479;-71
2022/01/02 03:21:47;;;;;;;9.30;4.57;;;;;;;11.90;100.00;101524.63;5220754;28;20030;-71
2022/01/02 03:24:18;;;;;;;8.10;3.83;;;;;;;11.93;100.00;101527.00;5221481;28;20037;-72
2022/01/02 03:26:49;;;;;;;11.85;4.43;;;;;;;11.87;100.00;101524.88;5222147;28;20107;-72
2022/01/02 03:29:20;;;;;;;10.15;4.68;;;;;;;11.92;100.00;101514.84;5220023;28;20030;-71
2022/01/02 03:31:52;;;;;;;14.85;4.40;;;;;;;11.84;100.00;101515.44;5222841;28;20017;-72
2022/01/02 03:34:23;;;;;;;13.13;4.63;;;;;;;11.92;100.00;101526.16;5220995;28;20285;-72
2022/01/02 03:36:54;;;;;;;8.55;4.20;;;;;;;11.97;100.00;101536.31;5221087;28;20026;-71
2022/01/02 03:39:25;;;;;;;11.65;4.38;;;;;;;11.96;100.00;101545.13;5205380;28;20033;-71
2022/01/02 03:41:57;;;;;;;10.02;4.60;;;;;;;11.93;100.00;101540.13;5222115;28;20021;-71
2022/01/02 03:44:28;;;;;;;11.48;5.10;;;;;;;11.89;100.00;101525.56;5221038;28;20058;-72
2022/01/02 03:46:59;;;;;;;13.48;4.95;;;;;;;11.90;100.00;101519.38;5227416;28;20025;-72
2022/01/02 03:49:31;;;;;;;11.45;4.78;;;;;;;11.89;100.00;101513.31;5225361;28;20085;-72
2022/01/02 03:52:04;;;;;;;9.30;4.15;;;;;;;11.92;100.00;101515.66;5223656;28;20033;-71
2022/01/02 03:54:35;;;;;;;;;;;;;;;12.25;100.00;101505.22;5223703;28;20018;-72
2022/01/02 03:57:07;;;;;;;13.70;4.70;;;;;;;11.91;100.00;101500.88;5224630;28;19917;-72
2022/01/02 03:59:38;;;;;;;13.77;4.68;;;;;;;11.91;100.00;101489.53;5222237;28;20064;-72
2022/01/02 04:02:09;;;;;;;11.90;4.32;;;;;;;11.88;100.00;101485.34;5224189;28;20083;-71
2022/01/02 04:04:41;;;;;;;13.35;4.60;;;;;;;11.89;100.00;101476.53;5205681;28;20017;-72
2022/01/02 04:07:12;;;;;;;10.85;4.40;;;;;;;11.89;100.00;101475.69;5224690;28;20088;-71
2022/01/02 04:09:43;;;;;;;11.00;4.40;;;;;;;11.89;100.00;101459.94;5224286;28;20040;-72
2022/01/02 04:12:15;;;;;;;10.45;3.63;;;;;;;11.94;100.00;101468.28;5224017;28;20022;-72
2022/01/02 04:14:46;;;;;;;10.07;4.30;;;;;;;11.95;100.00;101477.00;5205815;28;20164;-71
2022/01/02 04:17:17;;;;;;;11.18;4.47;;;;;;;11.95;100.00;101477.00;5223097;28;20033;-71
2022/01/02 04:19:48;;;;;;;8.85;3.72;;;;;;;11.91;100.00;101469.38;5208618;28;20021;-72
2022/01/02 04:22:20;;;;;;;12.48;4.60;;;;;;;11.93;100.00;101477.09;5223306;28;20156;-72
2022/01/02 04:24:51;;;;;;;5.95;3.75;;;;;;;11.91;100.00;101474.63;5206044;28;20400;-72
2022/01/02 04:27:24;;;;;;;11.73;4.55;;;;;;;11.92;100.00;101478.91;5225164;28;20067;-72
2022/01/02 04:29:55;;;;;;;9.53;4.00;;;;;;;11.93;100.00;101483.22;5223804;28;20109;-72
2022/01/02 04:32:26;;;;;;;11.57;3.95;;;;;;;11.91;100.00;101461.47;5224351;28;20380;-72
2022/01/02 04:34:58;;;;;;;8.02;4.05;;;;;;;11.89;100.00;101465.19;5226432;28;20025;-71
2022/01/02 04:37:29;;;;;;;11.52;4.22;;;;;;;11.88;100.00;101461.72;5224841;28;20033;-72
2022/01/02 04:40:00;;;;;;;10.73;4.78;;;;;;;11.88;100.00;101453.84;5223703;28;20048;-72
2022/01/02 04:42:32;;;;;;;11.45;4.75;;;;;;;11.87;100.00;101449.56;5223161;28;20087;-72
2022/01/02 04:45:05;;;;;;;10.52;4.07;;;;;;;11.87;100.00;101446.09;5205740;28;20045;-72
2022/01/02 04:47:36;;;;;;;9.40;4.03;;;;;;;11.84;100.00;101427.97;5214726;28;20048;-72
2022/01/02 04:50:08;;;;;;;9.10;3.88;;;;;;;11.84;100.00;101425.34;5225833;28;20053;-72
2022/01/02 04:52:39;;;;;;;9.57;4.03;;;;;;;11.80;100.00;101419.47;5224173;28;20080;-72
2022/01/02 04:55:10;;;;;;;13.68;4.82;;;;;;;11.79;100.00;101407.31;5224303;28;20060;-72
2022/01/02 04:57:42;;;;;;;8.82;4.20;;;;;;;11.72;100.00;101395.66;5223288;28;20057;-72
2022/01/02 05:00:13;;;;;;;8.55;4.25;;;;;;;11.76;100.00;101396.22;5223456;28;20033;-72
2022/01/02 05:02:45;;;;;;;9.57;3.97;;;;;;;11.76;100.00;101377.84;5204190;28;20483;-72
2022/01/02 05:05:16;;;;;;;10.00;3.50;;;;;;;11.78;100.00;101371.53;5223619;28;20148;-72
2022/01/02 05:07:47;;;;;;;8.55;4.07;;;;;;;11.79;100.00;101372.34;5204916;28;20021;-72
2022/01/02 05:10:19;;;;;;;8.35;3.70;;;;;;;11.76;100.00;101365.56;5204341;28;20104;-72
2022/01/02 05:12:50;;;;;;;7.80;4.28;;;;;;;11.73;100.00;101363.19;5224044;28;20029;-72
2022/01/02 05:15:22;;;;;;;7.00;3.58;;;;;;;11.71;100.00;101354.59;5221407;28;20582;-72
2022/01/02 05:17:53;;;;;;;10.38;4.18;;;;;;;11.65;100.00;101348.06;5221771;28;20044;-72
2022/01/02 05:20:24;;;;;;;10.93;3.80;;;;;;;11.69;100.00;101348.63;5224720;28;20021;-72
2022/01/02 05:22:55;;;;;;;7.45;3.95;;;;;;;11.69;100.00;101346.00;5222138;28;20061;-72
2022/01/02 05:25:27;;;;;;;8.30;3.65;;;;;;;11.67;100.00;101351.41;5205228;28;20029;-72
2022/01/02 05:27:58;;;;;;;14.60;4.18;;;;;;;11.67;100.00;101346.16;5222636;28;20027;-72
2022/01/02 05:30:29;;;;;;;8.80;3.78;;;;;;;11.65;100.00;101340.19;5220677;28;20484;-72
2022/01/02 05:33:00;;;;;;;10.15;3.78;;;;;;;11.64;100.00;101330.66;5225031;28;20467;-72
2022/01/02 05:35:32;;;;;;;10.75;3.97;;;;;;;11.66;100.00;101326.09;5223145;28;20017;-72
2022/01/02 05:38:03;;;;;;;7.03;3.70;;;;;;;11.67;100.00;101324.31;5223502;28;20064;-73
2022/01/02 05:40:35;;;;;;;9.13;3.70;;;;;;;11.66;100.00;101333.13;5223078;28;20038;-72
2022/01/02 05:43:06;;;;;;;11.55;4.03;;;;;;;11.62;100.00;101321.22;5223485;28;20030;-72
2022/01/02 05:45:38;;;;;;;13.80;4.15;;;;;;;11.62;100.00;101315.97;5220109;28;20622;-72
2022/01/02 05:48:09;;;;;;;11.45;4.47;;;;;;;11.60;100.00;101315.28;5220525;28;20121;-72
2022/01/02 05:50:40;;;;;;;9.77;4.40;;;;;;;11.65;100.00;101310.47;5223533;28;20079;-72
2022/01/02 05:53:12;;;;;;;7.45;4.05;;;;;;;11.62;100.00;101301.06;5223632;28;20422;-72
2022/01/02 05:55:43;;;;;;;6.38;3.50;;;;;;;11.61;100.00;101277.56;5223008;28;20471;-73
2022/01/02 05:58:14;;;;;;;7.72;3.83;;;;;;;11.56;100.00;101272.72;5218445;28;20025;-73
2022/01/02 06:00:45;;;;;;;10.57;4.20;;;;;;;11.55;100.00;101270.19;5218205;28;20475;-73
2022/01/02 06:03:17;;;;;;;8.73;3.90;;;;;;;11.57;100.00;101255.16;5221154;28;20017;-73
2022/01/02 06:05:48;;;;;;;9.63;4.15;;;;;;;11.58;100.00;101248.97;5222354;28;20068;-73
2022/01/02 06:08:19;;;;;;;9.05;3.85;;;;;;;11.65;100.00;101245.69;5220410;28;20442;-73
2022/01/02 06:10:51;;;;;;;11.77;4.07;;;;;;;11.56;100.00;101241.22;5222847;28;20022;-72
2022/01/02 06:13:22;;;;;;;7.10;3.42;;;;;;;11.58;100.00;101234.03;5204239;28;20033;-72
2022/01/02 06:15:54;;;;;;;12.43;3.75;;;;;;;11.56;100.00;101233.34;5222578;28;20055;-72
2022/01/02 06:18:25;;;;;;;7.45;3.15;;;;;;;11.55;100.00;101225.59;5203967;28;20349;-73
2022/01/02 06:20:56;;;;;;;8.40;3.20;;;;;;;11.54;100.00;101213.44;5223864;28;20032;-72
2022/01/02 06:23:27;;;;;;;5.00;3.30;;;;;;;11.59;100.00;101200.75;5203149;28;20044;-72
2022/01/02 06:25:59;;;;;;;7.93;3.28;;;;;;;11.57;100.00;101185.16;5221394;28;20478;-72
2022/01/02 06:28:30;;;;;;;10.18;3.65;;;;;;;11.64;100.00;101172.34;5220627;28;20028;-72
2022/01/02 06:31:01;;;;;;;8.85;3.60;;;;;;;11.59;100.00;101169.25;5204002;28;20029;-72
2022/01/02 06:33:33;;;;;;;12.65;3.38;;;;;;;11.50;100.00;101167.41;5219635;28;20018;-72
2022/01/02 06:36:04;;;;;;;5.88;3.30;;;;;;;11.47;100.00;101159.81;5220085;28;20087;-72
2022/01/02 06:38:35;;;;;;;5.93;2.88;;;;;;;11.47;100.00;101138.81;5221863;28;20021;-72
2022/01/02 06:41:06;;;;;;;6.40;2.88;;;;;;;11.50;100.00;101134.13;5204057;28;20025;-72
2022/01/02 06:43:38;;;;;;;7.20;3.88;;;;;;;11.41;100.00;101120.00;5221280;28;20281;-72
2022/01/02 06:46:10;;;;;;;7.70;3.53;;;;;;;11.42;100.00;101108.56;5223099;28;20663;-72
2022/01/02 06:48:41;;;;;;;8.20;3.03;;;;;;;11.44;100.00;101109.28;5203415;28;20414;-72
2022/01/02 06:51:12;;;;;;;5.15;3.17;;;;;;;11.44;100.00;101096.16;5221242;28;21778;-72
2022/01/02 06:53:43;;;;;;;8.02;3.03;;;;;;;11.44;100.00;101098.78;5222446;28;20029;-72
2022/01/02 06:56:15;;;;;;;6.97;2.88;;;;;;;11.44;100.00;101090.06;5203234;28;20025;-72
2022/01/02 06:58:46;;;;;;;7.53;3.13;;;;;;;11.46;100.00;101085.50;5222839;28;20036;-72
2022/01/02 07:01:17;;;;;;;6.05;2.50;;;;;;;11.45;100.00;101068.94;5217343;28;20030;-73
2022/01/02 07:03:48;;;;;;;6.75;3.03;;;;;;;11.45;100.00;101073.38;5219936;28;20021;-72
2022/01/02 07:06:20;;;;;;;8.00;2.78;;;;;;;11.43;100.00;101085.75;5222321;28;20025;-72
2022/01/02 07:08:51;;;;;;;9.18;2.53;;;;;;;11.46;100.00;101075.00;5202192;28;20084;-72
2022/01/02 07:11:22;;;;;;;6.75;2.47;;;;;;;11.46;100.00;101064.53;5222962;28;20025;-72
2022/01/02 07:13:54;;;;;;;4.55;2.67;;;;;;;11.56;100.00;101086.41;5221951;28;20026;-73
2022/01/02 07:16:25;;;;;;;7.57;2.72;;;;;;;11.57;100.00;101084.59;5219764;28;20412;-72
2022/01/02 07:18:56;;;;;;;6.18;2.53;;;;;;;11.59;100.00;101093.16;5222557;28;20076;-72
2022/01/02 07:21:27;;;;;;;6.57;2.60;;;;;;;11.59;100.00;101106.28;5225714;28;20136;-72
2022/01/02 07:23:59;;;;;;;6.78;2.42;;;;;;;11.64;100.00;101096.25;5217682;28;20030;-71
2022/01/02 07:26:30;;;;;;;7.45;3.00;;;;;;;11.62;100.00;101085.88;5223163;28;20018;-71
2022/01/02 07:29:01;;;;;;;4.97;2.90;;;;;;;11.56;100.00;101072.47;5201112;28;20034;-73
2022/01/02 07:31:33;;;;;;;6.22;2.70;;;;;;;11.61;100.00;101059.75;5224688;28;20033;-72
2022/01/02 07:34:04;;;;;;;6.18;2.83;;;;;;;11.65;100.00;101062.00;5223263;28;20056;-72
2022/01/02 07:36:38;;;;;;;5.82;2.70;;;;;;;11.61;100.00;101060.59;5222911;28;20048;-72
2022/01/02 07:39:09;;;;;;;7.15;2.80;;;;;;;11.60;100.00;101072.06;5222742;28;20022;-71
2022/01/02 07:41:41;;;;;;;7.00;2.92;;;;;;;11.68;100.00;101066.97;5220403;28;20036;-71
2022/01/02 07:44:13;;;;;;;7.47;2.58;;;;;;;11.67;100.00;101052.19;5221306;28;20241;-73
2022/01/02 07:46:44;;;;;;;6.60;2.50;;;;;;;11.70;100.00;101061.59;5216214;28;20044;-71
2022/01/02 07:49:15;;;;;;;5.82;2.30;;;;;;;11.71;100.00;101083.44;5217163;28;20079;-71
2022/01/02 07:51:47;;;;;;;6.10;2.38;;;;;;;11.74;100.00;101073.47;5218367;28;20037;-72
2022/01/02 07:54:18;;;;;;;5.72;2.50;;;;;;;11.66;100.00;101095.13;5220177;28;20090;-72
2022/01/02 07:56:49;;;;;;;3.45;1.98;;;;;;;11.70;100.00;101095.69;5217410;28;20022;-72
2022/01/02 07:59:21;;;;;;;6.25;2.40;;;;;;;11.64;100.00;101098.88;5217676;28;20111;-72
2022/01/02 08:01:52;;;;;;;3.80;2.33;;;;;;;11.61;100.00;101113.06;5220977;28;20021;-71
2022/01/02 08:04:24;;;;;;;6.22;2.35;;;;;;;11.63;100.00;101092.78;5218382;28;20335;-71
2022/01/02 08:06:55;;;;;;;7.30;2.63;;;;;;;11.56;100.00;101090.81;5219758;28;20061;-71
2022/01/02 08:09:26;;;;;;;5.30;2.40;;;;;;;11.57;100.00;101093.31;5216305;28;20026;-71
2022/01/02 08:11:57;;;;;;;5.60;2.88;;;;;;;11.57;100.00;101087.22;5221416;28;20025;-72
2022/01/02 08:14:29;;;;;;;5.07;2.40;;;;;;;11.55;100.00;101089.13;5219806;28;20467;-71
2022/01/02 08:17:01;;;;;;;5.85;2.28;;;;;;;11.60;100.00;101103.53;5222856;28;20478;-72
2022/01/02 08:19:32;;;;;;;6.07;2.97;;;;;;;11.59;100.00;101111.53;5219424;28;20103;-72
2022/01/02 08:22:03;;;;;;;4.82;2.70;;;;;;;11.58;100.00;101108.06;5222090;28;20064;-72
2022/01/02 08:24:34;;;;;;;5.47;2.90;;;;;;;11.65;100.00;101119.72;5219323;28;20040;-72
2022/01/02 08:27:06;;;;;;;4.65;2.55;;;;;;;11.68;100.00;101100.28;5223793;28;20026;-72
2022/01/02 08:29:37;;;;;;;4.40;2.60;;;;;;;11.71;100.00;101071.13;5219246;28;20080;-71
2022/01/02 08:32:09;;;;;;;5.22;2.45;;;;;;;11.66;100.00;101104.81;5221166;28;20026;-71
2022/01/02 08:34:40;;;;;;;5.32;2.30;;;;;;;11.70;100.00;101116.69;5215408;28;20197;-71
2022/01/02 08:37:14;;;;;;;4.30;2.30;;;;;;;11.75;100.00;101095.34;5220175;28;20017;-72
2022/01/02 08:39:46;;;;;;;3.90;2.30;;;;;;;11.70;100.00;101090.44;5216566;28;20038;-72
2022/01/02 08:42:17;;;;;;;4.50;2.10;;;;;;;11.76;100.00;101095.19;5221034;28;20582;-72
2022/01/02 08:44:49;;;;;;;6.28;2.55;;;;;;;11.80;100.00;101114.13;5223601;28;20096;-72
2022/01/02 08:47:21;;;;;;;5.80;2.67;;;;;;;11.79;100.00;101102.81;5221065;28;20045;-71
2022/01/02 08:49:53;;;;;;;5.57;3.08;;;;;;;11.87;100.00;101104.81;5217207;28;20032;-72
2022/01/02 08:52:25;;;;;;;4.75;2.80;;;;;;;11.88;100.00;101109.91;5221701;28;20095;-72
2022/01/02 08:54:56;;;;;;;5.80;2.80;;;;;;;11.92;100.00;101116.56;5218335;28;20022;-71
2022/01/02 08:57:27;;;;;;;5.75;2.40;;;;;;;12.03;100.00;101122.69;5198648;28;20042;-71
2022/01/02 08:59:58;;;;;;;4.32;2.45;;;;;;;12.05;100.00;101124.22;5222184;28;20432;-70
2022/01/02 09:02:30;;;;;;;6.40;2.80;;;;;;;12.06;100.00;101114.56;5215961;28;20426;-71
2022/01/02 09:05:01;;;;;;;5.68;2.63;;;;;;;12.11;100.00;101107.91;5216816;28;20049;-72
2022/01/02 09:07:33;;;;;;;6.45;2.75;;;;;;;12.11;100.00;101096.59;5201422;28;20435;-72
2022/01/02 09:10:04;;;;;;;6.32;2.85;;;;;;;12.13;100.00;101106.00;5222085;28;20032;-72
2022/01/02 09:12:36;;;;;;;6.07;2.72;;;;;;;12.17;100.00;101096.06;5220770;28;20088;-72
2022/01/02 09:15:07;;;;;;;5.82;2.97;;;;;;;12.18;100.00;101098.53;5220715;28;20514;-71
2022/01/02 09:17:39;;;;;;;7.43;3.22;;;;;;;12.19;100.00;101091.50;5220168;28;20056;-70
2022/01/02 09:20:12;;;;;;;6.97;3.20;;;;;;;12.30;100.00;101094.00;5220719;28;20036;-72
2022/01/02 09:22:44;;;;;;;7.90;3.28;;;;;;;12.23;100.00;101092.06;5216047;28;20064;-71
2022/01/02 09:25:15;;;;;;;6.00;3.65;;;;;;;12.35;100.00;101093.59;5223635;28;20134;-71
2022/01/02 09:27:46;;;;;;;7.03;3.55;;;;;;;12.44;100.00;101103.31;5221302;28;20597;-71
2022/01/02 09:30:18;;;;;;;6.80;3.20;;;;;;;12.51;100.00;101109.69;5216048;28;20025;-72
2022/01/02 09:32:49;;;;;;;6.10;3.55;;;;;;;12.57;100.00;101116.19;5219750;28;20025;-70
2022/01/02 09:35:20;;;;;;;6.68;3.45;;;;;;;12.61;100.00;101114.94;5219994;28;20444;-71
2022/01/02 09:37:52;;;;;;;7.55;3.50;;;;;;;12.71;100.00;101105.28;5221143;28;20052;-72
2022/01/02 09:40:25;;;;;;;6.75;3.83;;;;;;;12.72;100.00;101091.16;5216562;28;20049;-71
2022/01/02 09:42:57;;;;;;;;;;;;;;;13.05;100.00;101110.94;5215025;28;20068;-72
2022/01/02 09:45:31;;;;;;;8.10;3.35;;;;;;;12.79;100.00;101108.03;5214318;28;20316;-71
2022/01/02 09:48:05;;;;;;;7.65;3.58;;;;;;;12.69;100.00;101116.88;5215723;28;20043;-70
2022/01/02 09:50:38;;;;;;;6.05;3.42;;;;;;;12.77;100.00;101123.13;5215993;28;20084;-71
2022/01/02 09:53:09;;;;;;;7.47;3.72;;;;;;;12.70;100.00;101119.38;5222773;28;20538;-72
2022/01/02 09:55:41;;;;;;;5.95;3.90;;;;;;;12.70;100.00;101114.13;5218322;28;20025;-70
2022/01/02 09:58:13;;;;;;;8.40;3.70;;;;;;;12.70;100.00;101122.03;5221217;28;20049;-72
2022/01/02 10:00:46;;;;;;;4.70;3.08;;;;;;;12.65;100.00;101127.69;5217820;28;20627;-71
2022/01/02 10:03:18;;;;;;;10.90;3.53;;;;;;;12.79;100.00;101126.44;5211114;28;21580;-72
2022/01/02 10:05:56;;;;;;;9.52;3.60;;;;;;;12.87;100.00;101123.94;5215737;28;20036;-71
2022/01/02 10:08:30;;;;;;;5.50;3.67;;;;;;;12.94;100.00;101133.94;5217055;28;20547;-71
2022/01/02 10:11:22;;;;;;;8.30;4.03;;;;;;;13.12;100.00;101134.91;5220060;28;20025;-72
2022/01/02 10:13:56;;;;;;;8.05;3.55;;;;;;;13.11;100.00;101143.75;5215868;28;20116;-72
2022/01/02 10:16:33;;;;;;;5.78;3.50;;;;;;;13.17;100.00;101137.09;5218503;28;20121;-71
2022/01/02 10:19:32;;;;;;;6.25;3.88;;;;;;;13.16;100.00;101133.66;5215948;28;20033;-71
2022/01/02 10:22:04;;;;;;;8.38;3.80;;;;;;;13.09;100.00;101122.84;5217869;28;20021;-72
2022/01/02 10:24:40;;;;;;;7.43;3.40;;;;;;;13.12;100.00;101133.09;5215435;28;20104;-71
2022/01/02 10:27:19;;;;;;;8.02;3.40;;;;;;;13.13;100.00;101126.84;5217305;28;20121;-72
2022/01/02 10:29:54;;;;;;;10.60;3.63;;;;;;;13.12;100.00;101119.13;5219337;28;20048;-72
2022/01/02 10:32:47;;;;;;;8.30;3.55;;;;;;;13.28;100.00;101124.66;5217047;28;20022;-72
2022/01/02 10:35:23;;;;;;;7.25;3.50;;;;;;;13.19;100.00;101111.50;5214672;28;20021;-72
2022/01/02 10:37:57;;;;;;;7.97;3.42;;;;;;;13.18;100.00;101101.91;5214886;28;20125;-72
2022/01/02 10:40:33;;;;;;;8.07;3.63;;;;;;;13.20;100.00;101107.88;5217851;28;20041;-72
2022/01/02 10:43:33;;;;;;;6.63;2.75;;;;;;;13.30;100.00;101112.19;5210293;28;20022;-71
2022/01/02 10:46:08;;;;;;;11.77;3.63;;;;;;;13.26;100.00;101107.34;5218071;28;20041;-72
2022/01/02 10:48:41;;;;;;;7.85;3.15;;;;;;;13.28;100.00;101127.28;5215568;28;20109;-72
2022/01/02 10:51:17;;;;;;;9.57;3.63;;;;;;;13.27;100.00;101115.09;5212556;28;20021;-70
2022/01/02 10:53:54;;;;;;;8.85;3.80;;;;;;;13.31;100.00;101100.69;5217882;28;20128;-71
2022/01/02 10:56:27;;;;;;;7.85;3.50;;;;;;;13.27;100.00;101107.22;5215298;28;20111;-71
2022/01/02 10:58:58;;;;;;;6.75;3.45;;;;;;;13.25;100.00;101105.69;5214416;28;20034;-71
2022/01/02 11:01:30;;;;;;;8.00;3.22;;;;;;;13.25;100.00;101116.22;5215271;28;20033;-71
2022/01/02 11:04:01;;;;;;;9.38;3.33;;;;;;;13.30;100.00;101122.72;5215053;28;20069;-71
2022/01/02 11:06:36;;;;;;;8.63;3.05;;;;;;;13.32;100.00;101110.25;5220318;28;20076;-72
2022/01/02 11:09:07;;;;;;;6.18;3.13;;;;;;;13.35;100.00;101112.59;5217332;28;20100;-72
2022/01/02 11:11:39;;;;;;;7.65;3.17;;;;;;;13.42;100.00;101101.50;5213144;28;20042;-72
2022/01/02 11:14:10;;;;;;;7.72;3.13;;;;;;;13.38;100.00;101104.44;5209335;28;20120;-71
2022/01/02 11:16:42;;;;;;;7.47;3.38;;;;;;;13.43;100.00;101100.53;5210371;28;20525;-70
2022/01/02 11:19:14;;;;;;;8.00;3.40;;;;;;;13.55;100.00;101104.66;5213735;28;20468;-72
2022/01/02 11:21:47;;;;;;;6.63;3.45;;;;;;;13.71;100.00;101115.41;5212139;28;20235;-71
2022/01/02 11:24:27;;;;;;;6.68;3.05;;;;;;;13.82;100.00;101106.50;5216871;28;20041;-71
2022/01/02 11:27:24;;;;;;;8.48;3.25;;;;;;;13.75;100.00;101113.31;5216410;28;20026;-71
2022/01/02 11:29:55;;;;;;;11.50;3.35;;;;;;;13.76;100.00;101113.19;5182489;28;20038;-71
2022/01/02 11:32:27;;;;;;;9.80;3.15;;;;;;;13.76;100.00;101097.38;5214480;28;20029;-71
2022/01/02 11:34:58;;;;;;;7.28;3.00;;;;;;;13.85;100.00;101120.22;5219966;28;20666;-70
2022/01/02 11:37:30;;;;;;;7.15;3.30;;;;;;;13.85;100.00;101098.31;5214025;28;20030;-71
2022/01/02 11:40:04;;;;;;;7.45;3.35;;;;;;;13.92;100.00;101094.13;5214844;28;20458;-71
2022/01/02 11:42:36;;;;;;;6.28;3.00;;;;;;;13.99;100.00;101107.56;5219536;28;20025;-70
2022/01/02 11:45:31;;;;;;;8.00;3.60;;;;;;;14.14;100.00;101113.16;5195568;28;20045;-71
2022/01/02 11:48:26;;;;;;;8.52;3.78;;;;;;;14.20;100.00;101115.19;5212112;28;20038;-71
2022/01/02 11:50:57;;;;;;;8.90;3.00;;;;;;;13.91;100.00;101104.81;5214955;28;20091;-72